Time;durP1;ratioP1;P1;durP2;ratioP2;P2;SDS_P1;SDS_P2;PMS_P1;PMS_P2;Temp;Humidity;BMP_temperature;BMP_pressure;BME280_temperature;BME280_humidity;BME280_pressure;Samples;Min_cycle;Max_cycle;Signal;HPM_P1;HPM_P2
2022/10/09 00:01:28;;;;;;;11.95;4.70;;;5.70;99.90;;;5.06;100.00;97976.28;6206115;23;20340;-67
2022/10/09 00:03:57;;;;;;;13.35;4.32;;;5.80;99.90;;;5.07;100.00;97967.72;6207626;23;20016;-68
2022/10/09 00:06:31;;;;;;;16.48;4.55;;;5.70;99.90;;;5.06;100.00;97971.13;6206556;23;20025;-70
2022/10/09 00:09:03;;;;;;;9.32;3.67;;;5.70;99.90;;;4.98;100.00;97963.53;6204591;23;20656;-70
2022/10/09 00:11:32;;;;;;;8.75;3.50;;;5.60;99.90;;;5.01;100.00;97969.47;6207821;23;20108;-70
2022/10/09 00:14:01;;;;;;;8.05;3.90;;;5.60;99.90;;;4.92;100.00;97968.75;6203751;23;20024;-69
2022/10/09 00:16:28;;;;;;;8.63;4.00;;;5.60;99.90;;;4.91;100.00;97959.34;6203779;23;20028;-69
2022/10/09 00:18:55;;;;;;;8.45;3.53;;;5.60;99.90;;;4.97;100.00;97956.69;6204209;23;20724;-69
2022/10/09 00:21:31;;;;;;;17.52;3.88;;;5.60;99.90;;;4.90;100.00;97950.78;6202253;23;20483;-67
2022/10/09 00:24:01;;;;;;;14.40;3.53;;;5.70;99.90;;;5.01;100.00;97945.47;6201529;23;20445;-70
2022/10/09 00:26:28;;;;;;;9.18;3.03;;;5.70;99.90;;;5.02;100.00;97939.47;6202257;23;20048;-67
2022/10/09 00:28:56;;;;;;;8.27;2.45;;;5.70;99.90;;;5.10;100.00;97937.63;6202216;23;20029;-69
2022/10/09 00:31:23;;;;;;;11.88;3.60;;;5.80;99.90;;;5.13;100.00;97929.00;6203024;23;20765;-70
2022/10/09 00:33:50;;;;;;;8.60;2.53;;;5.90;99.90;;;5.17;100.00;97925.53;6203481;23;20094;-69
2022/10/09 00:36:22;;;;;;;11.80;2.28;;;5.80;99.90;;;5.21;100.00;97914.31;6206715;23;20453;-70
2022/10/09 00:38:49;;;;;;;7.53;2.53;;;5.90;99.90;;;5.15;100.00;97922.13;6207204;23;20024;-69
2022/10/09 00:41:21;;;;;;;7.65;2.47;;;5.90;99.90;;;5.17;100.00;97907.50;6178664;23;20071;-69
2022/10/09 00:43:54;;;;;;;7.78;2.15;;;6.00;99.90;;;5.19;100.00;97906.59;6206867;23;20021;-68
2022/10/09 00:46:47;;;;;;;14.25;2.72;;;6.00;99.90;;;5.25;100.00;97895.38;6205196;23;20098;-69
2022/10/09 00:49:29;;;;;;;14.55;2.90;;;6.00;99.90;;;5.16;100.00;97898.94;6199596;23;20012;-69
2022/10/09 00:52:01;;;;;;;9.40;2.88;;;6.00;99.90;;;5.17;100.00;97898.06;6202372;23;20040;-68
2022/10/09 00:54:35;;;;;;;11.05;2.72;;;6.00;99.90;;;5.16;100.00;97891.22;6200928;23;20032;-68
2022/10/09 00:57:02;;;;;;;7.55;2.20;;;5.90;99.90;;;5.12;100.00;97893.88;6200433;23;20426;-68
2022/10/09 00:59:30;;;;;;;7.60;2.70;;;5.90;99.90;;;5.13;100.00;97891.28;6201965;23;20031;-69
2022/10/09 01:01:57;;;;;;;13.80;2.63;;;5.90;99.90;;;5.11;100.00;97881.84;6200493;23;20039;-69
2022/10/09 01:04:24;;;;;;;11.80;2.40;;;5.90;99.90;;;5.14;100.00;97881.84;6202354;23;20101;-69
2022/10/09 01:07:13;;;;;;;6.32;2.80;;;5.90;99.90;;;5.11;100.00;97881.84;6203935;23;20052;-69
2022/10/09 01:09:56;;;;;;;8.95;2.00;;;5.90;99.90;;;5.13;100.00;97872.41;6201577;23;20021;-69
2022/10/09 01:12:47;;;;;;;;;;;5.90;99.90;;;5.06;100.00;97874.22;6205337;23;20036;-69
2022/10/09 01:15:27;;;;;;;6.07;1.98;;;5.90;99.90;;;5.09;100.00;97871.63;6229418;23;19991;-69
2022/10/09 01:18:23;;;;;;;8.32;2.35;;;5.80;99.90;;;4.99;100.00;97880.34;6209430;23;20024;-70
2022/10/09 01:21:21;;;;;;;12.63;2.58;;;5.80;99.90;;;5.06;100.00;97871.66;6214386;23;20459;-69
2022/10/09 01:24:12;;;;;;;11.18;2.75;;;5.70;99.90;;;5.08;100.00;97867.31;6207188;23;20363;-68
2022/10/09 01:26:55;;;;;;;9.88;2.50;;;5.80;99.90;;;5.01;100.00;97878.59;6206866;23;20033;-69
2022/10/09 01:29:27;;;;;;;10.15;2.08;;;5.90;99.90;;;4.96;100.00;97877.81;6206350;23;20024;-69
2022/10/09 01:31:56;;;;;;;8.25;2.75;;;5.80;99.90;;;4.99;100.00;97872.63;6203607;23;20028;-69
2022/10/09 01:34:23;;;;;;;8.40;2.83;;;5.80;99.90;;;5.08;100.00;97869.06;6204819;23;20094;-68
2022/10/09 01:36:52;;;;;;;11.32;2.70;;;5.80;99.90;;;5.12;100.00;97868.97;6205921;23;20031;-69
2022/10/09 01:39:21;;;;;;;7.95;2.25;;;5.80;99.90;;;5.10;100.00;97863.00;6207781;23;20024;-68
2022/10/09 01:41:51;;;;;;;9.23;2.85;;;5.80;99.90;;;4.95;100.00;97864.13;6206740;23;20050;-69
2022/10/09 01:44:32;;;;;;;10.95;2.60;;;5.80;99.90;;;4.96;100.00;97857.25;6207817;23;20016;-69
2022/10/09 01:47:00;;;;;;;9.00;2.70;;;5.80;99.90;;;5.06;100.00;97860.50;6208469;23;20023;-69
2022/10/09 01:49:39;;;;;;;11.40;2.40;;;5.80;99.90;;;5.06;100.00;97847.66;6209691;23;20029;-69
2022/10/09 01:52:27;;;;;;;12.80;2.50;;;5.80;99.90;;;5.10;100.00;97851.88;6234234;23;20046;-70
2022/10/09 01:55:08;;;;;;;13.88;2.72;;;5.80;99.90;;;4.95;100.00;97848.69;6210256;23;20099;-68
2022/10/09 01:58:03;;;;;;;8.13;2.85;;;5.80;99.90;;;5.03;100.00;97848.53;6207731;23;20025;-69
2022/10/09 02:00:36;;;;;;;12.02;3.42;;;5.70;99.90;;;4.92;100.00;97838.41;6210865;23;20025;-69
2022/10/09 02:03:08;;;;;;;9.35;2.72;;;5.70;99.90;;;4.97;100.00;97844.38;6208298;23;20050;-68
2022/10/09 02:05:37;;;;;;;8.10;2.37;;;5.70;99.90;;;4.93;100.00;97829.84;6206304;23;20028;-69
2022/10/09 02:08:04;;;;;;;9.23;2.78;;;5.70;99.90;;;4.91;100.00;97830.75;6208900;23;20027;-69
2022/10/09 02:10:34;;;;;;;5.70;2.53;;;5.70;99.90;;;4.87;100.00;97829.09;6207256;23;20032;-69
2022/10/09 02:13:01;;;;;;;8.48;2.78;;;5.60;99.90;;;4.80;100.00;97825.75;6206728;23;20055;-69
2022/10/09 02:15:50;;;;;;;11.98;2.95;;;5.60;99.90;;;4.74;100.00;97829.25;6207744;23;20028;-69
2022/10/09 02:18:44;;;;;;;9.02;2.55;;;5.50;99.90;;;4.79;100.00;97818.94;6208095;23;20064;-69
2022/10/09 02:21:19;;;;;;;;;;;5.60;99.90;;;4.74;100.00;97811.25;6220127;23;20044;-69
2022/10/09 02:23:48;;;;;;;5.57;2.17;;;5.50;99.90;;;4.74;100.00;97807.84;6222367;23;19920;-69
2022/10/09 02:26:17;;;;;;;7.78;2.83;;;5.50;99.90;;;4.82;100.00;97806.00;6222856;23;20455;-69
2022/10/09 02:28:44;;;;;;;15.50;2.95;;;5.50;99.90;;;4.76;100.00;97804.38;6220723;23;20037;-68
2022/10/09 02:31:25;;;;;;;8.15;2.30;;;5.50;99.90;;;4.73;100.00;97795.88;6229073;23;20047;-69
2022/10/09 02:34:02;;;;;;;7.95;2.10;;;5.50;99.90;;;4.78;100.00;97789.78;6206277;23;20032;-69
2022/10/09 02:36:30;;;;;;;10.50;2.80;;;5.50;99.90;;;4.80;100.00;97793.16;6206104;23;20028;-68
2022/10/09 02:38:57;;;;;;;5.65;2.33;;;5.50;99.90;;;4.87;100.00;97786.22;6206685;23;20365;-69
2022/10/09 02:41:25;;;;;;;10.02;3.00;;;5.60;99.90;;;4.87;100.00;97775.91;6207503;23;20030;-69
2022/10/09 02:43:52;;;;;;;10.38;2.42;;;5.50;99.90;;;4.86;100.00;97778.50;6207721;23;20476;-68
2022/10/09 02:46:20;;;;;;;8.13;2.22;;;5.50;99.90;;;4.90;100.00;97775.84;6208197;23;20021;-69
2022/10/09 02:48:47;;;;;;;10.18;2.50;;;5.60;99.90;;;4.87;100.00;97777.66;6208009;23;20095;-69
2022/10/09 02:51:14;;;;;;;7.28;2.80;;;5.50;99.90;;;4.94;100.00;97779.25;6207074;23;20035;-69
2022/10/09 02:53:41;;;;;;;6.60;2.80;;;5.60;99.90;;;4.82;100.00;97776.00;6207290;23;20046;-69
2022/10/09 02:56:08;;;;;;;7.00;2.30;;;5.50;99.90;;;4.86;100.00;97781.09;6205977;23;20647;-69
2022/10/09 02:58:36;;;;;;;10.70;2.80;;;5.50;99.90;;;4.91;100.00;97775.00;6206905;23;20364;-69
2022/10/09 03:01:03;;;;;;;8.32;2.92;;;5.60;99.90;;;4.97;100.00;97768.88;6206530;23;20028;-69
2022/10/09 03:03:31;;;;;;;8.48;2.38;;;5.60;99.90;;;4.94;100.00;97761.25;6208228;23;20035;-68
2022/10/09 03:06:25;;;;;;;10.35;2.85;;;5.60;99.90;;;4.86;100.00;97770.78;6204912;23;20522;-69
2022/10/09 03:08:54;;;;;;;7.28;2.42;;;5.60;99.90;;;4.88;100.00;97771.63;6203273;23;20373;-68
2022/10/09 03:11:24;;;;;;;6.75;2.30;;;5.60;99.90;;;4.80;100.00;97770.03;6205938;23;20436;-69
2022/10/09 03:13:51;;;;;;;8.20;2.72;;;5.60;99.90;;;4.75;100.00;97768.41;6207293;23;20032;-69
2022/10/09 03:16:23;;;;;;;6.20;2.30;;;5.50;99.90;;;4.78;100.00;97773.50;6207534;23;20028;-69
2022/10/09 03:18:52;;;;;;;10.73;2.95;;;5.50;99.90;;;4.80;100.00;97767.47;6205549;23;20029;-69
2022/10/09 03:21:25;;;;;;;8.43;2.63;;;5.50;99.90;;;4.89;100.00;97769.03;6206850;23;20075;-69
2022/10/09 03:23:53;;;;;;;9.75;2.65;;;5.50;99.90;;;4.89;100.00;97766.47;6217546;23;20127;-69
2022/10/09 03:26:25;;;;;;;11.45;3.13;;;5.60;99.90;;;4.96;100.00;97765.47;6206488;23;20024;-70
2022/10/09 03:28:54;;;;;;;7.25;2.55;;;5.60;99.90;;;5.16;100.00;97752.28;6206395;23;20024;-69
2022/10/09 03:31:24;;;;;;;9.32;2.67;;;5.80;99.90;;;5.39;100.00;97754.41;6206021;23;20020;-69
2022/10/09 03:34:11;;;;;;;9.45;2.55;;;5.90;99.90;;;5.31;100.00;97752.84;6206885;23;20546;-69
2022/10/09 03:36:39;;;;;;;11.50;2.90;;;6.00;99.90;;;5.33;100.00;97753.69;6207007;23;20543;-68
2022/10/09 03:39:06;;;;;;;9.88;2.45;;;6.00;99.90;;;5.30;100.00;97758.88;6215314;23;20020;-69
2022/10/09 03:41:32;;;;;;;10.70;2.45;;;6.00;99.90;;;5.39;100.00;97744.13;6207155;23;20020;-69
2022/10/09 03:44:00;;;;;;;6.68;2.42;;;6.00;99.90;;;5.42;100.00;97749.19;6207577;23;20074;-69
2022/10/09 03:46:27;;;;;;;9.30;1.80;;;6.00;99.90;;;5.53;100.00;97743.00;6206521;23;20052;-68
2022/10/09 03:48:54;;;;;;;10.50;2.33;;;6.10;99.90;;;5.58;100.00;97742.03;6207558;23;20021;-68
2022/10/09 03:51:21;;;;;;;8.55;2.05;;;6.10;99.90;;;5.62;100.00;97750.53;6206333;23;20036;-69
2022/10/09 03:53:48;;;;;;;7.15;1.90;;;6.20;99.90;;;5.64;100.00;97747.06;6207288;23;20167;-69
2022/10/09 03:56:15;;;;;;;5.30;1.88;;;6.20;99.90;;;5.62;100.00;97743.66;6207001;23;20483;-69
2022/10/09 03:58:42;;;;;;;6.45;2.08;;;6.20;99.90;;;5.62;100.00;97748.81;6205947;23;20030;-69
2022/10/09 04:01:09;;;;;;;10.35;2.13;;;6.20;99.90;;;5.62;100.00;97746.22;6206771;23;20724;-69
2022/10/09 04:03:36;;;;;;;5.78;1.95;;;6.20;99.90;;;5.67;100.00;97753.88;6207622;23;20023;-68
2022/10/09 04:06:03;;;;;;;9.48;2.08;;;6.30;99.90;;;5.82;100.00;97745.00;6206513;23;20025;-69
2022/10/09 04:08:30;;;;;;;12.40;2.20;;;6.30;99.90;;;5.79;100.00;97750.19;6205799;23;20017;-69
2022/10/09 04:11:01;;;;;;;5.53;1.70;;;6.40;99.90;;;5.86;100.00;97760.34;6205975;23;20032;-69
2022/10/09 04:13:28;;;;;;;10.82;1.85;;;6.40;99.90;;;6.24;100.00;97750.97;6207338;23;20443;-69
2022/10/09 04:15:56;;;;;;;9.32;1.73;;;6.60;99.90;;;6.25;100.00;97762.97;6206281;23;20035;-70
2022/10/09 04:18:23;;;;;;;9.75;2.08;;;6.80;99.90;;;6.23;100.00;97769.91;6231121;23;20032;-69
2022/10/09 04:20:53;;;;;;;10.38;1.67;;;6.80;99.90;;;6.37;100.00;97759.28;6207283;23;20044;-69
2022/10/09 04:23:25;;;;;;;10.23;1.75;;;6.90;99.90;;;6.38;100.00;97763.53;6207343;23;20138;-69
2022/10/09 04:25:54;;;;;;;7.47;1.85;;;7.00;99.90;;;6.26;100.00;97768.97;6205216;23;20031;-69
2022/10/09 04:28:22;;;;;;;6.35;1.50;;;6.90;99.90;;;6.36;100.00;97770.44;6203126;23;20025;-69
2022/10/09 04:30:49;;;;;;;7.85;1.73;;;6.90;99.90;;;6.53;100.00;97767.50;6206720;23;20046;-69
2022/10/09 04:33:17;;;;;;;9.20;1.63;;;7.00;99.90;;;6.38;100.00;97773.00;6215827;23;20038;-69
2022/10/09 04:35:45;;;;;;;6.18;1.33;;;7.10;99.90;;;6.28;100.00;97782.69;6230983;23;20020;-69
2022/10/09 04:38:12;;;;;;;8.40;1.60;;;7.00;99.90;;;6.31;100.00;97777.44;6205554;23;20024;-70
2022/10/09 04:40:40;;;;;;;6.07;1.52;;;6.90;99.90;;;6.05;100.00;97780.59;6207624;23;20027;-68
2022/10/09 04:43:06;;;;;;;9.30;2.00;;;6.80;99.90;;;6.15;100.00;97776.94;6206642;23;20364;-69
2022/10/09 04:45:39;;;;;;;10.75;1.70;;;6.80;99.90;;;5.94;100.00;97785.97;6205515;23;20024;-69
2022/10/09 04:48:06;;;;;;;8.45;2.08;;;6.70;99.90;;;6.00;100.00;97785.00;6204583;23;20024;-69
2022/10/09 04:50:33;;;;;;;6.78;1.48;;;6.60;99.90;;;6.11;100.00;97792.50;6204755;23;20032;-69
2022/10/09 04:52:59;;;;;;;7.28;1.55;;;6.70;99.90;;;5.99;100.00;97789.28;6207381;23;20020;-69
2022/10/09 04:55:26;;;;;;;7.53;1.70;;;6.70;99.90;;;6.03;100.00;97788.34;6205956;23;20710;-69
2022/10/09 04:57:54;;;;;;;9.45;1.73;;;6.70;99.90;;;6.03;100.00;97782.38;6206336;23;20506;-70
2022/10/09 05:00:21;;;;;;;6.28;1.30;;;6.70;99.90;;;5.99;100.00;97783.31;6206648;23;20020;-69
2022/10/09 05:02:48;;;;;;;8.88;1.80;;;6.60;99.90;;;5.96;100.00;97783.38;6206770;23;20029;-69
2022/10/09 05:05:15;;;;;;;7.57;1.52;;;6.60;99.90;;;6.04;100.00;97784.03;6205517;23;20071;-68
2022/10/09 05:07:42;;;;;;;5.18;1.20;;;6.70;99.90;;;6.06;100.00;97792.59;6207416;23;20468;-69
2022/10/09 05:10:09;;;;;;;6.40;1.70;;;6.70;99.90;;;6.06;100.00;97787.44;6206849;23;20028;-69
2022/10/09 05:12:35;;;;;;;7.68;1.52;;;6.70;99.90;;;5.96;100.00;97799.69;6206949;23;20028;-69
2022/10/09 05:15:03;;;;;;;4.45;1.50;;;6.70;99.90;;;5.84;100.00;97800.75;6206606;23;20029;-69
2022/10/09 05:17:30;;;;;;;4.35;1.40;;;6.60;99.90;;;5.89;100.00;97804.97;6205740;23;20025;-69
2022/10/09 05:19:57;;;;;;;9.20;1.75;;;6.50;99.90;;;5.87;100.00;97812.72;6207318;23;20116;-70
2022/10/09 05:22:24;;;;;;;11.70;2.40;;;6.50;99.90;;;5.90;100.00;97809.22;6207056;23;20119;-69
2022/10/09 05:24:51;;;;;;;7.25;1.45;;;6.50;99.90;;;5.97;100.00;97803.94;6216250;23;20024;-69
2022/10/09 05:27:18;;;;;;;4.85;1.48;;;6.60;99.90;;;5.93;100.00;97812.59;6207305;23;20031;-69
2022/10/09 05:29:45;;;;;;;6.97;1.65;;;6.60;99.90;;;5.90;100.00;97806.66;6207424;23;20464;-69
2022/10/09 05:32:13;;;;;;;8.75;1.58;;;6.50;99.90;;;5.81;100.00;97807.69;6206535;23;20514;-69
2022/10/09 05:34:40;;;;;;;9.25;1.30;;;6.50;99.90;;;5.81;100.00;97805.94;6206554;23;20025;-69
2022/10/09 05:37:07;;;;;;;5.20;1.48;;;6.50;99.90;;;5.67;100.00;97813.09;6206874;23;20494;-68
2022/10/09 05:39:38;;;;;;;6.72;1.80;;;6.40;99.90;;;5.63;100.00;97814.03;6206777;23;20488;-69
2022/10/09 05:42:05;;;;;;;12.38;4.80;;;6.30;99.90;;;5.62;100.00;97815.75;6207901;23;20021;-69
2022/10/09 05:44:32;;;;;;;15.75;6.15;;;6.30;99.90;;;5.59;100.00;97823.56;6206681;23;20082;-69
2022/10/09 05:46:59;;;;;;;17.88;8.35;;;6.30;99.90;;;5.50;100.00;97825.47;6205997;23;20024;-69
2022/10/09 05:49:26;;;;;;;22.45;8.30;;;6.20;99.90;;;5.53;100.00;97820.25;6207130;23;20024;-69
2022/10/09 05:51:54;;;;;;;15.65;6.00;;;6.20;99.90;;;5.53;100.00;97817.66;6206626;23;20024;-69
2022/10/09 05:54:21;;;;;;;15.55;4.53;;;6.20;99.90;;;5.52;100.00;97816.81;6214133;23;20028;-69
2022/10/09 05:56:48;;;;;;;17.63;5.28;;;6.20;99.90;;;5.48;100.00;97822.06;6207662;23;20035;-68
2022/10/09 05:59:20;;;;;;;21.27;7.97;;;6.20;99.90;;;5.52;100.00;97814.25;6207581;23;20024;-69
2022/10/09 06:01:50;;;;;;;27.55;12.88;;;6.20;99.90;;;5.40;100.00;97815.31;6207495;23;20467;-69
2022/10/09 06:04:21;;;;;;;26.38;11.60;;;6.20;99.90;;;5.44;100.00;97814.38;6205219;23;20021;-69
2022/10/09 06:06:49;;;;;;;21.58;9.35;;;6.20;99.90;;;5.48;100.00;97810.03;6203914;23;20047;-69
2022/10/09 06:09:21;;;;;;;30.40;14.93;;;6.20;99.90;;;5.41;100.00;97817.00;6204863;23;20046;-69
2022/10/09 06:11:52;;;;;;;23.48;10.88;;;6.10;99.90;;;5.47;100.00;97808.31;6206711;23;20031;-69
2022/10/09 06:14:20;;;;;;;40.83;18.27;;;6.20;99.90;;;5.51;100.00;97807.38;6204611;23;20055;-69
2022/10/09 06:16:48;;;;;;;30.13;16.48;;;6.20;99.90;;;5.52;100.00;97806.53;6205087;23;20033;-69
2022/10/09 06:19:18;;;;;;;43.97;21.73;;;6.20;99.90;;;5.48;100.00;97812.59;6203890;23;20135;-69
2022/10/09 06:21:46;;;;;;;29.65;13.45;;;6.20;99.90;;;5.50;100.00;97808.28;6204651;23;20052;-68
2022/10/09 06:24:21;;;;;;;21.10;10.65;;;6.20;99.90;;;5.45;100.00;97810.94;6202063;23;20028;-68
2022/10/09 06:26:54;;;;;;;26.17;15.10;;;6.20;99.90;;;5.48;100.00;97810.03;6207429;23;20024;-69
2022/10/09 06:29:21;;;;;;;33.17;18.55;;;6.20;99.90;;;5.59;100.00;97809.84;6209253;23;20457;-69
2022/10/09 06:31:48;;;;;;;33.50;18.35;;;6.30;99.90;;;5.63;100.00;97814.03;6208906;23;20033;-69
2022/10/09 06:34:15;;;;;;;55.03;31.30;;;6.30;99.90;;;5.60;100.00;97814.94;6208614;23;20024;-68
2022/10/09 06:36:42;;;;;;;57.55;31.85;;;6.40;99.90;;;5.61;100.00;97805.47;6207222;23;20031;-69
2022/10/09 06:39:09;;;;;;;36.65;18.08;;;6.40;99.90;;;5.69;100.00;97808.78;6207267;23;20031;-69
2022/10/09 06:41:36;;;;;;;27.52;15.52;;;6.40;99.90;;;5.70;100.00;97809.63;6207802;23;20020;-69
2022/10/09 06:44:06;;;;;;;23.60;13.18;;;6.50;99.90;;;5.66;100.00;97808.84;6207794;23;20071;-68
2022/10/09 06:46:37;;;;;;;23.23;11.95;;;6.50;99.90;;;5.65;100.00;97807.13;6207282;23;20021;-68
2022/10/09 06:49:06;;;;;;;33.22;15.10;;;6.50;99.90;;;5.73;100.00;97812.16;6229792;23;20017;-69
2022/10/09 06:51:33;;;;;;;27.38;14.80;;;6.50;99.90;;;5.83;100.00;97808.50;6203025;23;20043;-69
2022/10/09 06:54:06;;;;;;;15.77;8.65;;;6.60;99.90;;;5.89;100.00;97812.69;6205987;23;20127;-70
2022/10/09 06:56:33;;;;;;;18.73;8.65;;;6.70;99.90;;;5.95;100.00;97807.44;6206220;23;20024;-69
2022/10/09 06:59:05;;;;;;;16.42;7.25;;;6.70;99.90;;;5.98;100.00;97803.06;6206958;23;20040;-68
2022/10/09 07:01:33;;;;;;;16.13;6.07;;;6.80;99.90;;;6.01;100.00;97807.31;6203249;23;20037;-69
2022/10/09 07:04:05;;;;;;;11.27;4.30;;;6.80;99.90;;;6.15;100.00;97801.88;6201429;23;20056;-68
2022/10/09 07:06:37;;;;;;;9.50;3.20;;;7.00;99.90;;;6.22;100.00;97809.44;6205869;23;20538;-69
2022/10/09 07:09:08;;;;;;;9.00;2.90;;;7.00;99.90;;;6.34;100.00;97802.31;6206346;23;20020;-69
2022/10/09 07:11:38;;;;;;;14.13;3.10;;;7.10;99.90;;;6.49;100.00;97794.25;6205219;23;20029;-69
2022/10/09 07:14:08;;;;;;;8.48;2.65;;;7.20;99.90;;;6.55;100.00;97794.09;6205570;23;20035;-69
2022/10/09 07:16:39;;;;;;;9.40;2.85;;;7.30;99.90;;;6.63;100.00;97787.03;6205008;23;20038;-69
2022/10/09 07:19:11;;;;;;;8.00;2.00;;;7.40;99.90;;;6.83;100.00;97785.72;6207180;23;20660;-69
2022/10/09 07:21:42;;;;;;;8.55;2.38;;;7.60;99.90;;;7.05;100.00;97786.03;6205120;23;20052;-69
2022/10/09 07:24:10;;;;;;;9.52;2.65;;;7.90;99.90;;;7.27;100.00;97773.41;6206464;23;20020;-69
2022/10/09 07:26:41;;;;;;;9.82;2.30;;;8.40;99.90;;;7.74;100.00;97773.88;6205015;23;20131;-70
2022/10/09 07:29:11;;;;;;;8.20;2.10;;;8.80;99.90;;;8.27;100.00;97770.59;6206562;23;20160;-68
2022/10/09 07:31:38;;;;;;;6.85;2.03;;;9.30;99.90;;;9.13;100.00;97748.03;6205611;23;20472;-67
2022/10/09 07:34:05;;;;;;;7.72;2.10;;;9.80;99.90;;;9.47;100.00;97765.00;6206443;23;20021;-67
2022/10/09 07:36:33;;;;;;;8.15;2.47;;;10.30;99.90;;;10.36;100.00;97759.16;6228819;23;20024;-67
2022/10/09 07:39:00;;;;;;;14.98;3.90;;;10.80;99.90;;;10.85;100.00;97764.13;6202902;23;20032;-67
2022/10/09 07:41:28;;;;;;;15.10;6.20;;;11.20;99.90;;;11.17;100.00;97787.94;6203323;23;20107;-67
2022/10/09 07:43:56;;;;;;;31.85;17.45;;;11.40;99.90;;;11.33;100.00;97801.13;6205144;23;20052;-67
2022/10/09 07:46:26;;;;;;;93.38;50.50;;;;;;;11.65;100.00;97813.59;6202652;23;20025;-66
2022/10/09 07:48:58;;;;;;;46.05;25.50;;;12.20;99.90;;;11.65;100.00;97836.16;6205208;23;20055;-66
2022/10/09 07:51:28;;;;;;;117.00;62.53;;;12.40;99.90;;;11.90;100.00;97856.78;6204902;23;20023;-67
2022/10/09 07:53:56;;;;;;;39.08;21.92;;;12.60;99.90;;;11.54;100.00;97875.63;6206152;23;20020;-66
2022/10/09 07:56:30;;;;;;;28.52;15.95;;;12.50;99.90;;;11.89;100.00;97879.34;6205314;23;20349;-66
2022/10/09 07:59:11;;;;;;;26.42;15.55;;;12.70;99.90;;;12.39;100.00;97875.44;6205813;23;20020;-66
2022/10/09 08:01:38;;;;;;;10.35;3.55;;;;;;;12.35;100.00;97876.50;6205886;23;20028;-67
2022/10/09 08:04:05;;;;;;;13.63;6.13;;;13.10;99.90;;;12.62;100.00;97891.78;6204041;23;20024;-70
2022/10/09 08:06:33;;;;;;;15.75;7.45;;;13.40;99.90;;;13.37;100.00;97875.22;6204907;23;20031;-67
2022/10/09 08:09:02;;;;;;;11.95;4.93;;;13.80;99.90;;;13.62;100.00;97876.63;6205830;23;20468;-67
2022/10/09 08:11:29;;;;;;;10.95;4.40;;;14.20;99.90;;;13.97;100.00;97877.44;6204127;23;20032;-67
2022/10/09 08:13:56;;;;;;;11.23;3.00;;;14.50;99.90;;;13.74;100.00;97889.03;6205108;23;20123;-67
2022/10/09 08:16:26;;;;;;;13.23;5.00;;;14.90;99.90;;;14.30;100.00;97887.03;6205216;23;20035;-67
2022/10/09 08:18:58;;;;;;;10.95;2.00;;;14.90;99.90;;;14.18;100.00;97891.13;6205728;23;20020;-68
2022/10/09 08:21:27;;;;;;;4.55;1.50;;;15.20;99.90;;;14.56;100.00;97889.13;6205060;23;20028;-68
2022/10/09 08:23:56;;;;;;;7.53;1.83;;;15.40;99.90;;;14.66;100.00;97902.53;6203409;23;20534;-67
2022/10/09 08:26:28;;;;;;;5.70;1.40;;;15.70;99.90;;;14.26;100.00;97911.63;6202621;23;20024;-66
2022/10/09 08:28:57;;;;;;;;;;;15.80;99.90;;;14.82;100.00;97910.38;6205117;23;20025;-68
2022/10/09 08:31:26;;;;;;;9.40;1.77;;;16.00;99.90;;;14.91;100.00;97904.66;6202796;23;19920;-68
2022/10/09 08:33:55;;;;;;;9.40;2.22;;;16.20;99.90;;;14.76;100.00;97922.03;6203888;23;20031;-67
2022/10/09 08:36:23;;;;;;;6.85;1.77;;;16.10;99.90;;;15.14;100.00;97900.78;6206085;23;20040;-68
2022/10/09 08:38:51;;;;;;;7.38;1.63;;;16.20;99.90;;;15.55;100.00;97900.19;6205519;23;20043;-68
2022/10/09 08:41:41;;;;;;;7.85;1.58;;;16.60;99.90;;;15.67;100.00;97917.81;6204787;23;20123;-66
2022/10/09 08:44:24;;;;;;;7.18;1.40;;;16.90;99.90;;;15.47;100.00;97929.41;6205773;23;20025;-68
2022/10/09 08:47:15;;;;;;;8.35;1.27;;;16.70;99.90;;;15.16;100.00;97919.00;6202000;23;20027;-69
2022/10/09 08:49:49;;;;;;;4.78;1.33;;;16.90;99.90;;;15.73;100.00;97900.09;6201471;23;20421;-67
2022/10/09 08:53:05;;;;;;;5.55;1.30;;;16.90;99.90;;;15.11;100.00;97916.63;6205348;23;20405;-67
2022/10/09 08:55:44;;;;;;;4.95;1.33;;;16.40;99.90;;;15.15;100.00;97896.41;6191043;23;20017;-68
2022/10/09 08:58:18;;;;;;;9.73;1.63;;;16.00;99.90;;;15.52;100.00;97889.09;6203231;23;20383;-68
2022/10/09 09:00:53;;;;;;;4.63;1.00;;;15.80;99.90;;;14.95;100.00;97892.28;6203977;23;20025;-67
2022/10/09 09:03:38;;;;;;;6.30;1.52;;;15.50;99.90;;;14.75;100.00;97886.38;6203956;23;20118;-67
2022/10/09 09:06:12;;;;;;;4.78;1.20;;;15.00;99.90;;;14.52;100.00;97884.97;6206701;23;20032;-68
2022/10/09 09:08:44;;;;;;;6.00;1.45;;;;;;;14.11;100.00;97877.56;6206532;23;20025;-67
2022/10/09 09:11:59;;;;;;;6.85;1.30;;;14.40;99.90;;;14.38;100.00;97867.41;6204031;23;20028;-67
2022/10/09 09:14:58;;;;;;;7.55;1.70;;;14.50;99.90;;;13.58;100.00;97874.16;6196430;23;20044;-67
2022/10/09 09:18:00;;;;;;;5.85;1.52;;;14.10;99.90;;;13.47;100.00;97863.41;6201875;23;20047;-67
2022/10/09 09:20:54;;;;;;;4.57;1.20;;;14.00;99.90;;;13.35;100.00;97851.81;6200371;23;20619;-67
2022/10/09 09:23:35;;;;;;;8.15;1.45;;;13.90;99.90;;;13.22;100.00;97845.50;6202929;23;20016;-68
2022/10/09 09:26:15;;;;;;;7.45;1.20;;;13.80;99.90;;;13.18;100.00;97841.34;6204962;23;20021;-68
2022/10/09 09:28:43;;;;;;;9.77;2.03;;;13.80;99.90;;;12.93;100.00;97828.66;6206484;23;20028;-66
2022/10/09 09:31:21;;;;;;;4.72;1.50;;;13.60;99.90;;;13.02;100.00;97824.78;6202691;23;20025;-68
2022/10/09 09:33:48;;;;;;;5.53;1.05;;;13.60;99.90;;;12.91;100.00;97818.31;6204567;23;20460;-67
2022/10/09 09:36:39;;;;;;;7.75;1.58;;;13.60;99.90;;;13.00;100.00;97816.19;6200980;23;20024;-67
2022/10/09 09:39:12;;;;;;;10.35;1.42;;;13.60;99.90;;;12.80;100.00;97822.38;6204092;23;20472;-68
2022/10/09 09:42:08;;;;;;;5.20;1.35;;;13.50;99.90;;;12.86;100.00;97829.88;6202063;23;20144;-66
2022/10/09 09:44:41;;;;;;;6.22;1.48;;;13.50;99.90;;;12.86;100.00;97820.28;6203706;23;20029;-67
2022/10/09 09:47:33;;;;;;;7.13;1.60;;;13.50;99.90;;;12.81;100.00;97830.09;6196760;23;20562;-67
2022/10/09 09:50:03;;;;;;;6.72;1.48;;;13.50;99.90;;;12.76;100.00;97840.72;6200465;23;20032;-67
2022/10/09 09:52:38;;;;;;;6.35;1.30;;;13.50;99.90;;;12.73;100.00;97837.44;6200962;23;20325;-67
2022/10/09 09:55:05;;;;;;;5.18;1.55;;;13.50;99.90;;;12.71;100.00;97829.69;6200951;23;20035;-67
2022/10/09 09:57:38;;;;;;;5.03;1.25;;;13.50;99.90;;;12.99;100.00;97820.56;6201901;23;20025;-68
2022/10/09 10:00:20;;;;;;;5.88;1.30;;;13.70;99.90;;;13.04;100.00;97817.72;6204390;23;20020;-67
2022/10/09 10:02:49;;;;;;;6.55;1.45;;;13.70;99.90;;;13.19;100.00;97814.38;6205114;23;20024;-67
2022/10/09 10:05:23;;;;;;;4.40;1.30;;;13.80;99.90;;;13.16;100.00;97823.19;6204101;23;20096;-68
2022/10/09 10:07:50;;;;;;;5.75;1.50;;;13.90;99.90;;;13.27;100.00;97816.59;6200695;23;20020;-67
2022/10/09 10:10:26;;;;;;;4.55;1.50;;;13.90;99.90;;;13.28;100.00;97820.94;6204177;23;20120;-66
2022/10/09 10:12:57;;;;;;;8.45;1.45;;;14.00;99.90;;;13.32;100.00;97831.13;6203060;23;20183;-67
2022/10/09 10:15:30;;;;;;;5.93;1.10;;;14.00;99.90;;;13.44;100.00;97810.59;6204368;23;20035;-67
2022/10/09 10:18:05;;;;;;;5.90;1.33;;;14.10;99.90;;;13.42;100.00;97826.28;6203367;23;20072;-67
2022/10/09 10:21:01;;;;;;;5.22;1.23;;;14.10;99.90;;;13.40;100.00;97817.69;6203550;23;20044;-68
2022/10/09 10:23:42;;;;;;;3.78;1.25;;;14.10;99.90;;;13.41;100.00;97826.34;6203779;23;20047;-68
2022/10/09 10:26:28;;;;;;;3.83;1.00;;;14.10;99.90;;;13.49;100.00;97821.63;6201617;23;20020;-66
2022/10/09 10:29:00;;;;;;;4.40;1.17;;;14.20;99.90;;;13.47;100.00;97818.25;6204587;23;20027;-67
2022/10/09 10:31:43;;;;;;;3.95;1.30;;;14.20;99.90;;;13.51;100.00;97822.38;6201733;23;20025;-67
2022/10/09 10:34:43;;;;;;;;;;;14.20;99.90;;;13.66;100.00;97826.84;6204057;23;20043;-67
2022/10/09 10:37:13;;;;;;;3.90;1.02;;;14.30;99.90;;;13.57;100.00;97850.75;6206146;23;19916;-67
2022/10/09 10:39:51;;;;;;;6.10;1.10;;;14.30;99.90;;;13.63;100.00;97842.63;6204518;23;20040;-66
2022/10/09 10:42:25;;;;;;;3.70;0.95;;;14.30;99.90;;;13.70;100.00;97835.31;6211934;23;20465;-67